TimeCDT,TemperatureF,Dew PointF,Humidity,Sea Level PressureIn,VisibilityMPH,Wind Direction,Wind SpeedMPH,Gust SpeedMPH,PrecipitationIn,Events,Conditions,WindDirDegrees,DateUTC
12:15 AM,41.9,30.2,63,30.19,10.0,WNW,6.9,-,N/A,,Overcast,290,2012-10-07 05:15:00
12:35 AM,41.9,30.6,64,30.18,10.0,West,5.8,-,N/A,,Overcast,280,2012-10-07 05:35:00
12:55 AM,41.4,31.1,67,30.18,10.0,West,3.5,-,N/A,,Overcast,270,2012-10-07 05:55:00
1:15 AM,41.4,30.9,66,30.18,10.0,WNW,5.8,-,N/A,,Overcast,290,2012-10-07 06:15:00
1:35 AM,41.4,30.9,66,30.18,10.0,WNW,4.6,-,N/A,,Overcast,290,2012-10-07 06:35:00
1:55 AM,41.2,31.1,67,30.18,10.0,West,4.6,-,N/A,,Overcast,280,2012-10-07 06:55:00
2:15 AM,40.8,32.0,71,30.18,10.0,West,4.6,-,N/A,,Overcast,270,2012-10-07 07:15:00
2:35 AM,40.5,32.2,72,30.18,10.0,West,4.6,-,N/A,,Overcast,270,2012-10-07 07:35:00
2:55 AM,40.3,32.5,74,30.18,10.0,West,4.6,-,N/A,,Overcast,270,2012-10-07 07:55:00
3:15 AM,40.1,32.4,74,30.18,10.0,West,4.6,-,N/A,,Overcast,260,2012-10-07 08:15:00
3:35 AM,39.6,32.4,75,30.17,10.0,West,3.5,-,N/A,,Overcast,260,2012-10-07 08:35:00
3:55 AM,39.0,32.2,76,30.17,10.0,West,4.6,-,N/A,,Mostly Cloudy,270,2012-10-07 08:55:00
4:15 AM,38.3,32.2,79,30.17,10.0,West,4.6,-,N/A,,Scattered Clouds,270,2012-10-07 09:15:00
4:35 AM,37.9,32.5,81,30.16,10.0,West,3.5,-,N/A,,Scattered Clouds,270,2012-10-07 09:35:00
4:55 AM,37.8,32.4,81,30.16,10.0,West,3.5,-,N/A,,Clear,270,2012-10-07 09:55:00
5:15 AM,37.6,32.4,81,30.16,10.0,Calm,Calm,-,N/A,,Clear,0,2012-10-07 10:15:00
5:35 AM,37.0,32.2,83,30.16,10.0,West,3.5,-,N/A,,Clear,270,2012-10-07 10:35:00
5:55 AM,36.9,32.0,83,30.16,10.0,West,4.6,-,N/A,,Clear,270,2012-10-07 10:55:00
6:15 AM,36.5,32.0,84,30.17,10.0,West,4.6,-,N/A,,Clear,260,2012-10-07 11:15:00
6:35 AM,36.5,32.0,84,30.17,10.0,West,3.5,-,N/A,,Clear,260,2012-10-07 11:35:00
6:55 AM,36.5,31.8,83,30.17,10.0,West,3.5,-,N/A,,Clear,260,2012-10-07 11:55:00
7:15 AM,36.0,32.0,86,30.18,10.0,West,4.6,-,N/A,,Clear,270,2012-10-07 12:15:00
7:35 AM,36.0,32.0,86,30.18,10.0,West,3.5,-,N/A,,Clear,260,2012-10-07 12:35:00
7:55 AM,37.4,32.4,82,30.18,10.0,West,5.8,-,N/A,,Clear,280,2012-10-07 12:55:00
8:15 AM,39.6,32.4,75,30.19,10.0,West,6.9,-,N/A,,Scattered Clouds,280,2012-10-07 13:15:00
8:35 AM,41.4,32.0,69,30.19,10.0,West,8.1,-,N/A,,Scattered Clouds,280,2012-10-07 13:35:00
8:55 AM,43.3,31.8,64,30.19,10.0,WNW,6.9,-,N/A,,Mostly Cloudy,290,2012-10-07 13:55:00
9:15 AM,42.8,30.2,61,30.20,10.0,WNW,5.8,-,N/A,,Scattered Clouds,300,2012-10-07 14:15:00
9:35 AM,44.1,30.7,59,30.20,10.0,WNW,8.1,-,N/A,,Clear,300,2012-10-07 14:35:00
9:55 AM,45.3,30.7,57,30.20,10.0,West,5.8,-,N/A,,Clear,280,2012-10-07 14:55:00
10:15 AM,46.6,28.4,49,30.20,10.0,WNW,8.1,-,N/A,,Clear,290,2012-10-07 15:15:00
10:35 AM,47.5,27.5,46,30.20,10.0,WNW,9.2,-,N/A,,Clear,300,2012-10-07 15:35:00
10:55 AM,46.2,24.8,43,30.20,10.0,NW,9.2,-,N/A,,Scattered Clouds,310,2012-10-07 15:55:00
11:15 AM,46.4,25.3,44,30.20,10.0,WNW,8.1,-,N/A,,Mostly Cloudy,300,2012-10-07 16:15:00
11:35 AM,46.8,24.3,41,30.21,10.0,WNW,10.4,19.6,N/A,,Mostly Cloudy,290,2012-10-07 16:35:00
11:55 AM,46.8,23.4,40,30.20,10.0,NW,5.8,-,N/A,,Overcast,310,2012-10-07 16:55:00
12:15 PM,47.8,24.3,40,30.21,10.0,WSW,10.4,-,N/A,,Overcast,250,2012-10-07 17:15:00
12:35 PM,48.0,24.1,39,30.20,10.0,West,11.5,17.3,N/A,,Mostly Cloudy,270,2012-10-07 17:35:00
12:55 PM,49.3,24.6,38,30.19,10.0,WNW,9.2,19.6,N/A,,Overcast,290,2012-10-07 17:55:00
1:15 PM,47.1,22.6,38,30.19,10.0,WNW,4.6,-,N/A,,Mostly Cloudy,300,2012-10-07 18:15:00
1:35 PM,49.1,24.3,38,30.18,10.0,West,10.4,-,N/A,,Mostly Cloudy,270,2012-10-07 18:35:00
1:55 PM,48.2,22.5,36,30.18,10.0,West,6.9,-,N/A,,Mostly Cloudy,270,2012-10-07 18:55:00
2:15 PM,48.2,21.2,34,30.17,10.0,NW,4.6,-,N/A,,Mostly Cloudy,310,2012-10-07 19:15:00
2:35 PM,47.7,21.7,36,30.17,10.0,WNW,8.1,-,N/A,,Scattered Clouds,300,2012-10-07 19:35:00
2:55 PM,51.4,24.3,35,30.16,10.0,WSW,12.7,20.7,N/A,,Mostly Cloudy,240,2012-10-07 19:55:00
3:15 PM,51.4,23.2,33,30.16,10.0,West,12.7,21.9,N/A,,Mostly Cloudy,260,2012-10-07 20:15:00
3:35 PM,51.4,24.4,35,30.16,10.0,West,10.4,16.1,N/A,,Scattered Clouds,280,2012-10-07 20:35:00
3:55 PM,49.6,23.0,35,30.16,10.0,WNW,6.9,-,N/A,,Scattered Clouds,290,2012-10-07 20:55:00
4:15 PM,50.2,23.0,35,30.16,10.0,WSW,11.5,-,N/A,,Mostly Cloudy,250,2012-10-07 21:15:00
4:35 PM,49.5,21.6,33,30.16,10.0,WSW,8.1,-,N/A,,Scattered Clouds,250,2012-10-07 21:35:00
4:55 PM,48.2,21.9,36,30.16,10.0,West,4.6,-,N/A,,Clear,280,2012-10-07 21:55:00
5:15 PM,48.6,21.6,35,30.16,10.0,WNW,6.9,18.4,N/A,,Clear,290,2012-10-07 22:15:00
5:35 PM,48.0,21.2,35,30.15,10.0,WNW,6.9,-,N/A,,Clear,290,2012-10-07 22:35:00
5:55 PM,46.9,22.1,38,30.15,10.0,West,5.8,-,N/A,,Clear,270,2012-10-07 22:55:00
6:15 PM,45.7,21.9,39,30.16,10.0,West,4.6,-,N/A,,Clear,270,2012-10-07 23:15:00
6:35 PM,43.9,23.0,44,30.16,10.0,Calm,Calm,-,N/A,,Clear,0,2012-10-07 23:35:00
6:55 PM,38.5,26.1,61,30.17,10.0,Calm,Calm,-,N/A,,Clear,0,2012-10-07 23:55:00
7:15 PM,38.5,25.5,60,30.17,10.0,SSW,3.5,-,N/A,,Clear,210,2012-10-08 00:15:00
7:35 PM,35.6,26.4,69,30.18,10.0,SSW,3.5,-,N/A,,Clear,200,2012-10-08 00:35:00
7:55 PM,35.2,26.2,70,30.18,10.0,SSW,3.5,-,N/A,,Clear,210,2012-10-08 00:55:00
8:15 PM,35.2,26.8,71,30.18,10.0,Calm,Calm,-,N/A,,Clear,0,2012-10-08 01:15:00
8:35 PM,32.4,26.8,80,30.18,10.0,South,4.6,-,N/A,,Clear,180,2012-10-08 01:35:00
8:55 PM,34.2,27.1,75,30.18,10.0,South,3.5,-,N/A,,Clear,190,2012-10-08 01:55:00
9:15 PM,34.7,27.3,74,30.18,10.0,SSW,3.5,-,N/A,,Clear,200,2012-10-08 02:15:00
9:35 PM,34.9,26.6,72,30.18,10.0,Calm,Calm,-,N/A,,Clear,0,2012-10-08 02:35:00
9:55 PM,32.7,26.8,79,30.18,10.0,South,3.5,-,N/A,,Clear,190,2012-10-08 02:55:00
10:15 PM,33.4,27.0,77,30.18,10.0,Calm,Calm,-,N/A,,Clear,0,2012-10-08 03:15:00
10:35 PM,32.2,26.4,79,30.18,10.0,Calm,Calm,-,N/A,,Clear,0,2012-10-08 03:35:00
10:55 PM,34.2,26.6,74,30.18,10.0,SSW,4.6,-,N/A,,Clear,210,2012-10-08 03:55:00
11:15 PM,33.4,26.6,76,30.18,10.0,SW,4.6,-,N/A,,Clear,220,2012-10-08 04:15:00
11:35 PM,34.2,26.6,74,30.18,10.0,SSW,4.6,-,N/A,,Clear,210,2012-10-08 04:35:00
11:55 PM,32.7,26.6,78,30.18,10.0,SSW,4.6,-,N/A,,Clear,200,2012-10-08 04:55:00